sensor_id;sensor_type;location;lat;lon;timestamp;temperature;humidity
14252;DHT22;7210;51.502;10.722;2023-02-28T00:01:08;-1.00;99.90
14252;DHT22;7210;51.502;10.722;2023-02-28T00:03:35;-1.10;99.90
14252;DHT22;7210;51.502;10.722;2023-02-28T00:06:05;-1.00;99.90
14252;DHT22;7210;51.502;10.722;2023-02-28T00:08:34;-1.00;99.90
14252;DHT22;7210;51.502;10.722;2023-02-28T00:11:02;-1.00;99.90
14252;DHT22;7210;51.502;10.722;2023-02-28T00:13:30;-1.10;99.90
14252;DHT22;7210;51.502;10.722;2023-02-28T00:16:01;-1.10;99.90
14252;DHT22;7210;51.502;10.722;2023-02-28T00:18:30;-1.10;99.90
14252;DHT22;7210;51.502;10.722;2023-02-28T00:20:57;-1.00;99.90
14252;DHT22;7210;51.502;10.722;2023-02-28T00:23:27;-1.00;99.90
14252;DHT22;7210;51.502;10.722;2023-02-28T00:25:54;-1.00;99.90
14252;DHT22;7210;51.502;10.722;2023-02-28T00:28:22;-1.00;99.90
14252;DHT22;7210;51.502;10.722;2023-02-28T00:30:49;-1.10;99.90
14252;DHT22;7210;51.502;10.722;2023-02-28T00:33:16;-1.20;99.90
14252;DHT22;7210;51.502;10.722;2023-02-28T00:35:43;-1.10;99.90
14252;DHT22;7210;51.502;10.722;2023-02-28T00:38:12;-1.20;99.90
14252;DHT22;7210;51.502;10.722;2023-02-28T00:40:40;-1.20;99.90
14252;DHT22;7210;51.502;10.722;2023-02-28T00:43:10;-1.20;99.90
14252;DHT22;7210;51.502;10.722;2023-02-28T00:45:37;-1.20;99.90
14252;DHT22;7210;51.502;10.722;2023-02-28T00:48:05;-1.10;99.90
14252;DHT22;7210;51.502;10.722;2023-02-28T00:50:37;-1.10;99.90
14252;DHT22;7210;51.502;10.722;2023-02-28T00:53:04;-1.10;99.90
14252;DHT22;7210;51.502;10.722;2023-02-28T00:55:31;-1.10;99.90
14252;DHT22;7210;51.502;10.722;2023-02-28T00:58:03;-1.00;99.90
14252;DHT22;7210;51.502;10.722;2023-02-28T01:00:30;-1.00;99.90
14252;DHT22;7210;51.502;10.722;2023-02-28T01:02:57;-1.00;99.90
14252;DHT22;7210;51.502;10.722;2023-02-28T01:05:24;-1.00;99.90
14252;DHT22;7210;51.502;10.722;2023-02-28T01:07:51;-1.10;99.90
14252;DHT22;7210;51.502;10.722;2023-02-28T01:10:19;-1.00;99.90
14252;DHT22;7210;51.502;10.722;2023-02-28T01:12:46;-1.10;99.90
14252;DHT22;7210;51.502;10.722;2023-02-28T01:15:16;-1.10;99.90
14252;DHT22;7210;51.502;10.722;2023-02-28T01:17:44;-1.10;99.90
14252;DHT22;7210;51.502;10.722;2023-02-28T01:20:12;-1.10;99.90
14252;DHT22;7210;51.502;10.722;2023-02-28T01:22:39;-1.10;99.90
14252;DHT22;7210;51.502;10.722;2023-02-28T01:25:07;-1.20;99.90
14252;DHT22;7210;51.502;10.722;2023-02-28T01:27:35;-1.20;99.90
14252;DHT22;7210;51.502;10.722;2023-02-28T01:30:02;-1.20;99.90
14252;DHT22;7210;51.502;10.722;2023-02-28T01:32:31;-1.20;99.90
14252;DHT22;7210;51.502;10.722;2023-02-28T01:34:58;-1.20;99.90
14252;DHT22;7210;51.502;10.722;2023-02-28T01:37:26;-1.10;99.90
14252;DHT22;7210;51.502;10.722;2023-02-28T01:39:53;-1.10;99.90
14252;DHT22;7210;51.502;10.722;2023-02-28T01:42:20;-1.10;99.90
14252;DHT22;7210;51.502;10.722;2023-02-28T01:44:57;-1.10;99.90
14252;DHT22;7210;51.502;10.722;2023-02-28T01:47:36;-1.10;99.90
14252;DHT22;7210;51.502;10.722;2023-02-28T01:50:11;-1.10;99.90
14252;DHT22;7210;51.502;10.722;2023-02-28T01:52:42;-1.10;99.90
14252;DHT22;7210;51.502;10.722;2023-02-28T01:55:12;-1.10;99.90
14252;DHT22;7210;51.502;10.722;2023-02-28T01:57:45;-1.10;99.90
14252;DHT22;7210;51.502;10.722;2023-02-28T02:00:16;-1.10;99.90
14252;DHT22;7210;51.502;10.722;2023-02-28T02:02:49;-1.10;99.90
14252;DHT22;7210;51.502;10.722;2023-02-28T02:05:22;-1.00;99.90
14252;DHT22;7210;51.502;10.722;2023-02-28T02:07:54;-1.10;99.90
14252;DHT22;7210;51.502;10.722;2023-02-28T02:10:29;-1.00;99.90
14252;DHT22;7210;51.502;10.722;2023-02-28T02:13:21;-1.00;99.90
14252;DHT22;7210;51.502;10.722;2023-02-28T02:16:04;-1.00;99.90
14252;DHT22;7210;51.502;10.722;2023-02-28T02:18:52;-1.00;99.90
14252;DHT22;7210;51.502;10.722;2023-02-28T02:25:16;-1.00;99.90
14252;DHT22;7210;51.502;10.722;2023-02-28T02:31:29;-1.00;99.90
14252;DHT22;7210;51.502;10.722;2023-02-28T02:34:30;-1.00;99.90
14252;DHT22;7210;51.502;10.722;2023-02-28T02:37:13;-1.10;99.90
14252;DHT22;7210;51.502;10.722;2023-02-28T02:39:52;-1.10;99.90
14252;DHT22;7210;51.502;10.722;2023-02-28T02:42:29;-1.10;99.90
14252;DHT22;7210;51.502;10.722;2023-02-28T02:45:06;-1.20;99.90
14252;DHT22;7210;51.502;10.722;2023-02-28T02:47:37;-1.20;99.90
14252;DHT22;7210;51.502;10.722;2023-02-28T02:50:12;-1.20;99.90
14252;DHT22;7210;51.502;10.722;2023-02-28T02:52:45;-1.20;99.90
14252;DHT22;7210;51.502;10.722;2023-02-28T02:55:18;-1.20;99.90
14252;DHT22;7210;51.502;10.722;2023-02-28T02:57:50;-1.20;99.90
14252;DHT22;7210;51.502;10.722;2023-02-28T03:00:25;-1.20;99.90
14252;DHT22;7210;51.502;10.722;2023-02-28T03:02:57;-1.10;99.90
14252;DHT22;7210;51.502;10.722;2023-02-28T03:05:32;-1.10;99.90
14252;DHT22;7210;51.502;10.722;2023-02-28T03:08:07;-1.10;99.90
14252;DHT22;7210;51.502;10.722;2023-02-28T03:10:37;-1.10;99.90
14252;DHT22;7210;51.502;10.722;2023-02-28T03:13:52;-1.10;99.90
14252;DHT22;7210;51.502;10.722;2023-02-28T03:16:35;-1.00;99.90
14252;DHT22;7210;51.502;10.722;2023-02-28T03:19:33;-1.00;99.90
14252;DHT22;7210;51.502;10.722;2023-02-28T03:22:37;-1.00;99.90
14252;DHT22;7210;51.502;10.722;2023-02-28T03:25:27;-0.90;99.90
14252;DHT22;7210;51.502;10.722;2023-02-28T03:28:03;-1.00;99.90
14252;DHT22;7210;51.502;10.722;2023-02-28T03:30:41;-1.00;99.90
14252;DHT22;7210;51.502;10.722;2023-02-28T03:33:20;-1.00;99.90
14252;DHT22;7210;51.502;10.722;2023-02-28T03:35:52;-1.00;99.90
14252;DHT22;7210;51.502;10.722;2023-02-28T03:38:29;-1.10;99.90
14252;DHT22;7210;51.502;10.722;2023-02-28T03:41:05;-1.10;99.90
14252;DHT22;7210;51.502;10.722;2023-02-28T03:43:41;-1.00;99.90
14252;DHT22;7210;51.502;10.722;2023-02-28T03:46:18;-1.10;99.90
14252;DHT22;7210;51.502;10.722;2023-02-28T03:48:54;-1.10;99.90
14252;DHT22;7210;51.502;10.722;2023-02-28T03:51:26;-1.10;99.90
14252;DHT22;7210;51.502;10.722;2023-02-28T03:53:59;-1.00;99.90
14252;DHT22;7210;51.502;10.722;2023-02-28T03:56:38;-1.10;99.90
14252;DHT22;7210;51.502;10.722;2023-02-28T03:59:13;-1.00;99.90
14252;DHT22;7210;51.502;10.722;2023-02-28T04:01:47;-1.00;99.90
14252;DHT22;7210;51.502;10.722;2023-02-28T04:04:16;-0.80;99.90
14252;DHT22;7210;51.502;10.722;2023-02-28T04:06:44;-0.70;99.90
14252;DHT22;7210;51.502;10.722;2023-02-28T04:09:14;-0.60;99.90
14252;DHT22;7210;51.502;10.722;2023-02-28T04:11:42;-0.50;99.90
14252;DHT22;7210;51.502;10.722;2023-02-28T04:14:14;-0.50;99.90
14252;DHT22;7210;51.502;10.722;2023-02-28T04:16:42;-0.50;99.90
14252;DHT22;7210;51.502;10.722;2023-02-28T04:19:11;-0.40;99.90
14252;DHT22;7210;51.502;10.722;2023-02-28T04:21:41;-0.30;99.90
14252;DHT22;7210;51.502;10.722;2023-02-28T04:24:13;-0.30;99.90
14252;DHT22;7210;51.502;10.722;2023-02-28T04:26:44;-0.30;99.90
14252;DHT22;7210;51.502;10.722;2023-02-28T04:29:14;-0.20;99.90
14252;DHT22;7210;51.502;10.722;2023-02-28T04:31:46;-0.20;99.90
14252;DHT22;7210;51.502;10.722;2023-02-28T04:34:13;-0.30;99.90
14252;DHT22;7210;51.502;10.722;2023-02-28T04:36:41;-0.30;99.90
14252;DHT22;7210;51.502;10.722;2023-02-28T04:39:08;-0.30;99.90
14252;DHT22;7210;51.502;10.722;2023-02-28T04:41:37;-0.40;99.90
14252;DHT22;7210;51.502;10.722;2023-02-28T04:44:04;-0.40;99.90
14252;DHT22;7210;51.502;10.722;2023-02-28T04:46:32;-0.50;99.90
14252;DHT22;7210;51.502;10.722;2023-02-28T04:48:59;-0.60;99.90
14252;DHT22;7210;51.502;10.722;2023-02-28T04:51:26;-0.50;99.90
14252;DHT22;7210;51.502;10.722;2023-02-28T04:53:53;-0.50;99.90
14252;DHT22;7210;51.502;10.722;2023-02-28T04:56:21;-0.50;99.90
14252;DHT22;7210;51.502;10.722;2023-02-28T04:58:51;-0.50;99.90
14252;DHT22;7210;51.502;10.722;2023-02-28T05:01:22;-0.50;99.90
14252;DHT22;7210;51.502;10.722;2023-02-28T05:03:52;-0.50;99.90
14252;DHT22;7210;51.502;10.722;2023-02-28T05:06:21;-0.50;99.90
14252;DHT22;7210;51.502;10.722;2023-02-28T05:08:50;-0.60;99.90
14252;DHT22;7210;51.502;10.722;2023-02-28T05:11:19;-0.60;99.90
14252;DHT22;7210;51.502;10.722;2023-02-28T05:13:48;-0.60;99.90
14252;DHT22;7210;51.502;10.722;2023-02-28T05:16:18;-0.70;99.90
14252;DHT22;7210;51.502;10.722;2023-02-28T05:18:46;-0.70;99.90
14252;DHT22;7210;51.502;10.722;2023-02-28T05:21:27;-0.80;99.90
14252;DHT22;7210;51.502;10.722;2023-02-28T05:23:57;-0.80;99.90
14252;DHT22;7210;51.502;10.722;2023-02-28T05:26:26;-0.80;99.90
14252;DHT22;7210;51.502;10.722;2023-02-28T05:28:54;-0.80;99.90
14252;DHT22;7210;51.502;10.722;2023-02-28T05:31:23;-0.90;99.90
14252;DHT22;7210;51.502;10.722;2023-02-28T05:33:50;-0.90;99.90
14252;DHT22;7210;51.502;10.722;2023-02-28T05:36:22;-0.90;99.90
14252;DHT22;7210;51.502;10.722;2023-02-28T05:38:50;-1.00;99.90
14252;DHT22;7210;51.502;10.722;2023-02-28T05:41:19;-1.00;99.90
14252;DHT22;7210;51.502;10.722;2023-02-28T05:43:47;-0.90;99.90
14252;DHT22;7210;51.502;10.722;2023-02-28T05:46:15;-0.90;99.90
14252;DHT22;7210;51.502;10.722;2023-02-28T05:48:46;-0.90;99.90
14252;DHT22;7210;51.502;10.722;2023-02-28T05:51:14;-0.80;99.90
14252;DHT22;7210;51.502;10.722;2023-02-28T05:53:42;-0.90;99.90
14252;DHT22;7210;51.502;10.722;2023-02-28T05:56:09;-0.90;99.90
14252;DHT22;7210;51.502;10.722;2023-02-28T05:58:37;-0.90;99.90
14252;DHT22;7210;51.502;10.722;2023-02-28T06:01:20;-0.90;99.90
14252;DHT22;7210;51.502;10.722;2023-02-28T06:03:51;-0.90;99.90
14252;DHT22;7210;51.502;10.722;2023-02-28T06:06:19;-0.90;99.90
14252;DHT22;7210;51.502;10.722;2023-02-28T06:08:50;-0.90;99.90
14252;DHT22;7210;51.502;10.722;2023-02-28T06:11:17;-0.80;99.90
14252;DHT22;7210;51.502;10.722;2023-02-28T06:13:45;-0.80;99.90
14252;DHT22;7210;51.502;10.722;2023-02-28T06:16:12;-0.80;99.90
14252;DHT22;7210;51.502;10.722;2023-02-28T06:18:39;-0.80;99.90
14252;DHT22;7210;51.502;10.722;2023-02-28T06:21:12;-0.80;99.90
14252;DHT22;7210;51.502;10.722;2023-02-28T06:23:39;-0.80;99.90
14252;DHT22;7210;51.502;10.722;2023-02-28T06:26:07;-0.80;99.90
14252;DHT22;7210;51.502;10.722;2023-02-28T06:28:34;-0.70;99.90
14252;DHT22;7210;51.502;10.722;2023-02-28T06:31:07;-0.70;99.90
14252;DHT22;7210;51.502;10.722;2023-02-28T06:33:35;-0.60;99.90
14252;DHT22;7210;51.502;10.722;2023-02-28T06:36:03;-0.70;99.90
14252;DHT22;7210;51.502;10.722;2023-02-28T06:38:33;-0.70;99.90
14252;DHT22;7210;51.502;10.722;2023-02-28T06:41:01;-0.70;99.90
14252;DHT22;7210;51.502;10.722;2023-02-28T06:43:31;-0.70;99.90
14252;DHT22;7210;51.502;10.722;2023-02-28T06:46:00;-0.70;99.90
14252;DHT22;7210;51.502;10.722;2023-02-28T06:48:28;-0.70;99.90
14252;DHT22;7210;51.502;10.722;2023-02-28T06:51:02;-0.70;99.90
14252;DHT22;7210;51.502;10.722;2023-02-28T06:53:30;-0.70;99.90
14252;DHT22;7210;51.502;10.722;2023-02-28T06:55:58;-0.70;99.90
14252;DHT22;7210;51.502;10.722;2023-02-28T06:58:27;-0.80;99.90
14252;DHT22;7210;51.502;10.722;2023-02-28T07:00:55;-0.80;99.90
14252;DHT22;7210;51.502;10.722;2023-02-28T07:03:22;-0.90;99.90
14252;DHT22;7210;51.502;10.722;2023-02-28T07:05:50;-0.90;99.90
14252;DHT22;7210;51.502;10.722;2023-02-28T07:08:18;-0.90;99.90
14252;DHT22;7210;51.502;10.722;2023-02-28T07:10:45;-0.90;99.90
14252;DHT22;7210;51.502;10.722;2023-02-28T07:13:15;-0.80;99.90
14252;DHT22;7210;51.502;10.722;2023-02-28T07:15:42;-0.80;99.90
14252;DHT22;7210;51.502;10.722;2023-02-28T07:18:09;-0.70;99.90
14252;DHT22;7210;51.502;10.722;2023-02-28T07:20:36;-0.70;99.90
14252;DHT22;7210;51.502;10.722;2023-02-28T07:23:03;-0.60;99.90
14252;DHT22;7210;51.502;10.722;2023-02-28T07:25:30;-0.60;99.90
14252;DHT22;7210;51.502;10.722;2023-02-28T07:27:58;-0.60;99.90
14252;DHT22;7210;51.502;10.722;2023-02-28T07:30:27;-0.60;99.90
14252;DHT22;7210;51.502;10.722;2023-02-28T07:32:54;-0.60;99.90
14252;DHT22;7210;51.502;10.722;2023-02-28T07:35:22;-0.60;99.90
14252;DHT22;7210;51.502;10.722;2023-02-28T07:37:50;-0.60;99.90
14252;DHT22;7210;51.502;10.722;2023-02-28T07:40:17;-0.60;99.90
14252;DHT22;7210;51.502;10.722;2023-02-28T07:42:45;-0.60;99.90
14252;DHT22;7210;51.502;10.722;2023-02-28T07:45:16;-0.50;99.90
14252;DHT22;7210;51.502;10.722;2023-02-28T07:47:45;-0.50;99.90
14252;DHT22;7210;51.502;10.722;2023-02-28T07:50:14;-0.40;99.90
14252;DHT22;7210;51.502;10.722;2023-02-28T07:52:42;-0.40;99.90
14252;DHT22;7210;51.502;10.722;2023-02-28T07:55:10;-0.30;99.90
14252;DHT22;7210;51.502;10.722;2023-02-28T07:57:39;-0.30;99.90
14252;DHT22;7210;51.502;10.722;2023-02-28T08:00:09;-0.20;99.90
14252;DHT22;7210;51.502;10.722;2023-02-28T08:02:39;-0.10;99.90
14252;DHT22;7210;51.502;10.722;2023-02-28T08:05:08;0.00;99.90
14252;DHT22;7210;51.502;10.722;2023-02-28T08:07:36;0.00;99.90
14252;DHT22;7210;51.502;10.722;2023-02-28T08:10:03;0.10;99.90
14252;DHT22;7210;51.502;10.722;2023-02-28T08:12:32;0.10;99.90
14252;DHT22;7210;51.502;10.722;2023-02-28T08:14:59;0.20;99.90
14252;DHT22;7210;51.502;10.722;2023-02-28T08:17:26;0.20;99.90
14252;DHT22;7210;51.502;10.722;2023-02-28T08:19:53;0.20;99.90
14252;DHT22;7210;51.502;10.722;2023-02-28T08:22:22;0.20;99.90
14252;DHT22;7210;51.502;10.722;2023-02-28T08:24:49;0.30;99.90
14252;DHT22;7210;51.502;10.722;2023-02-28T08:27:16;0.40;99.90
14252;DHT22;7210;51.502;10.722;2023-02-28T08:29:43;0.50;99.90
14252;DHT22;7210;51.502;10.722;2023-02-28T08:32:10;0.60;99.90
14252;DHT22;7210;51.502;10.722;2023-02-28T08:34:39;0.50;99.90
14252;DHT22;7210;51.502;10.722;2023-02-28T08:37:06;0.60;99.90
14252;DHT22;7210;51.502;10.722;2023-02-28T08:39:35;0.60;99.90
14252;DHT22;7210;51.502;10.722;2023-02-28T08:42:04;0.60;99.90
14252;DHT22;7210;51.502;10.722;2023-02-28T08:44:31;0.60;99.90
14252;DHT22;7210;51.502;10.722;2023-02-28T08:46:59;0.70;99.90
14252;DHT22;7210;51.502;10.722;2023-02-28T08:49:26;0.70;99.90
14252;DHT22;7210;51.502;10.722;2023-02-28T08:51:54;0.80;99.90
14252;DHT22;7210;51.502;10.722;2023-02-28T08:54:22;0.80;99.90
14252;DHT22;7210;51.502;10.722;2023-02-28T08:56:51;0.80;99.90
14252;DHT22;7210;51.502;10.722;2023-02-28T08:59:19;0.80;99.90
14252;DHT22;7210;51.502;10.722;2023-02-28T09:01:46;0.90;99.90
14252;DHT22;7210;51.502;10.722;2023-02-28T09:04:16;0.90;99.90
14252;DHT22;7210;51.502;10.722;2023-02-28T09:06:45;0.90;99.90
14252;DHT22;7210;51.502;10.722;2023-02-28T09:09:15;1.10;99.90
14252;DHT22;7210;51.502;10.722;2023-02-28T09:11:43;1.10;99.90
14252;DHT22;7210;51.502;10.722;2023-02-28T09:14:12;1.10;99.90
14252;DHT22;7210;51.502;10.722;2023-02-28T09:16:41;1.10;99.90
14252;DHT22;7210;51.502;10.722;2023-02-28T09:19:10;1.20;99.90
14252;DHT22;7210;51.502;10.722;2023-02-28T09:21:40;1.30;99.90
14252;DHT22;7210;51.502;10.722;2023-02-28T09:24:07;1.40;99.90
14252;DHT22;7210;51.502;10.722;2023-02-28T09:26:37;1.40;99.90
14252;DHT22;7210;51.502;10.722;2023-02-28T09:29:04;1.50;99.90
14252;DHT22;7210;51.502;10.722;2023-02-28T09:31:33;1.60;99.90
14252;DHT22;7210;51.502;10.722;2023-02-28T09:34:01;1.50;99.90
14252;DHT22;7210;51.502;10.722;2023-02-28T09:36:28;1.60;99.90
14252;DHT22;7210;51.502;10.722;2023-02-28T09:38:58;1.60;99.90
14252;DHT22;7210;51.502;10.722;2023-02-28T09:41:37;1.70;99.90
14252;DHT22;7210;51.502;10.722;2023-02-28T09:44:20;1.70;99.90
14252;DHT22;7210;51.502;10.722;2023-02-28T09:46:58;1.80;99.90
14252;DHT22;7210;51.502;10.722;2023-02-28T09:49:34;1.90;99.90
14252;DHT22;7210;51.502;10.722;2023-02-28T09:52:10;1.90;99.90
14252;DHT22;7210;51.502;10.722;2023-02-28T09:54:40;1.90;99.90
14252;DHT22;7210;51.502;10.722;2023-02-28T09:57:13;2.00;99.90
14252;DHT22;7210;51.502;10.722;2023-02-28T09:59:56;2.20;99.90
14252;DHT22;7210;51.502;10.722;2023-02-28T10:05:56;2.40;99.90
14252;DHT22;7210;51.502;10.722;2023-02-28T10:08:33;2.40;99.90
14252;DHT22;7210;51.502;10.722;2023-02-28T10:11:14;2.40;99.90
14252;DHT22;7210;51.502;10.722;2023-02-28T10:13:51;2.50;99.90
14252;DHT22;7210;51.502;10.722;2023-02-28T10:16:28;2.60;99.90
14252;DHT22;7210;51.502;10.722;2023-02-28T10:19:04;2.70;99.90
14252;DHT22;7210;51.502;10.722;2023-02-28T10:22:11;2.80;99.90
14252;DHT22;7210;51.502;10.722;2023-02-28T10:24:45;2.80;99.90
14252;DHT22;7210;51.502;10.722;2023-02-28T10:27:15;2.80;99.90
14252;DHT22;7210;51.502;10.722;2023-02-28T10:29:45;2.80;99.90
14252;DHT22;7210;51.502;10.722;2023-02-28T10:32:17;2.80;99.90
14252;DHT22;7210;51.502;10.722;2023-02-28T10:34:51;2.90;99.90
14252;DHT22;7210;51.502;10.722;2023-02-28T10:37:22;3.00;99.90
14252;DHT22;7210;51.502;10.722;2023-02-28T10:39:49;3.00;99.90
14252;DHT22;7210;51.502;10.722;2023-02-28T10:42:20;3.10;99.90
14252;DHT22;7210;51.502;10.722;2023-02-28T10:45:05;3.30;99.90
14252;DHT22;7210;51.502;10.722;2023-02-28T10:47:49;3.40;99.90
14252;DHT22;7210;51.502;10.722;2023-02-28T10:50:34;3.40;99.90
14252;DHT22;7210;51.502;10.722;2023-02-28T10:53:22;3.60;99.90
14252;DHT22;7210;51.502;10.722;2023-02-28T10:56:06;3.70;99.90
14252;DHT22;7210;51.502;10.722;2023-02-28T10:58:53;3.60;99.90
14252;DHT22;7210;51.502;10.722;2023-02-28T11:01:24;3.70;99.90
14252;DHT22;7210;51.502;10.722;2023-02-28T11:04:03;3.60;99.90
14252;DHT22;7210;51.502;10.722;2023-02-28T11:06:44;3.70;99.90
14252;DHT22;7210;51.502;10.722;2023-02-28T11:09:19;3.80;99.90
14252;DHT22;7210;51.502;10.722;2023-02-28T11:11:51;3.90;99.90
14252;DHT22;7210;51.502;10.722;2023-02-28T11:14:21;3.80;99.90
14252;DHT22;7210;51.502;10.722;2023-02-28T11:16:51;3.80;99.90
14252;DHT22;7210;51.502;10.722;2023-02-28T11:19:24;3.80;99.90
14252;DHT22;7210;51.502;10.722;2023-02-28T11:21:57;3.80;99.90
14252;DHT22;7210;51.502;10.722;2023-02-28T11:24:30;3.80;99.90
14252;DHT22;7210;51.502;10.722;2023-02-28T11:27:00;3.90;99.90
14252;DHT22;7210;51.502;10.722;2023-02-28T11:29:29;4.00;99.90
14252;DHT22;7210;51.502;10.722;2023-02-28T11:32:02;4.00;99.90
14252;DHT22;7210;51.502;10.722;2023-02-28T11:34:35;4.10;99.90
14252;DHT22;7210;51.502;10.722;2023-02-28T11:37:12;4.20;99.90
14252;DHT22;7210;51.502;10.722;2023-02-28T11:39:41;4.20;99.90
14252;DHT22;7210;51.502;10.722;2023-02-28T11:42:29;4.30;99.90
14252;DHT22;7210;51.502;10.722;2023-02-28T11:45:14;4.30;99.90
14252;DHT22;7210;51.502;10.722;2023-02-28T11:47:57;4.30;99.90
14252;DHT22;7210;51.502;10.722;2023-02-28T11:50:43;4.40;99.90
14252;DHT22;7210;51.502;10.722;2023-02-28T11:53:26;4.40;99.90
14252;DHT22;7210;51.502;10.722;2023-02-28T11:56:19;4.50;99.90
14252;DHT22;7210;51.502;10.722;2023-02-28T11:59:05;4.50;99.90
14252;DHT22;7210;51.502;10.722;2023-02-28T12:02:08;4.60;99.90
14252;DHT22;7210;51.502;10.722;2023-02-28T12:04:53;4.60;99.90
14252;DHT22;7210;51.502;10.722;2023-02-28T12:07:50;4.60;99.90
14252;DHT22;7210;51.502;10.722;2023-02-28T12:10:28;4.60;99.90
14252;DHT22;7210;51.502;10.722;2023-02-28T12:13:06;4.60;99.90
14252;DHT22;7210;51.502;10.722;2023-02-28T12:15:56;4.60;99.90
14252;DHT22;7210;51.502;10.722;2023-02-28T12:18:51;4.70;99.90
14252;DHT22;7210;51.502;10.722;2023-02-28T12:21:34;4.70;99.90
14252;DHT22;7210;51.502;10.722;2023-02-28T12:24:27;4.70;99.90
14252;DHT22;7210;51.502;10.722;2023-02-28T12:27:21;4.80;99.90
14252;DHT22;7210;51.502;10.722;2023-02-28T12:29:57;4.90;99.90
14252;DHT22;7210;51.502;10.722;2023-02-28T12:32:31;4.90;99.90
14252;DHT22;7210;51.502;10.722;2023-02-28T12:35:06;5.00;99.90
14252;DHT22;7210;51.502;10.722;2023-02-28T12:37:41;5.10;99.90
14252;DHT22;7210;51.502;10.722;2023-02-28T12:40:17;5.20;99.90
14252;DHT22;7210;51.502;10.722;2023-02-28T12:42:51;5.10;99.90
14252;DHT22;7210;51.502;10.722;2023-02-28T12:45:23;5.20;99.90
14252;DHT22;7210;51.502;10.722;2023-02-28T12:47:58;5.30;99.90
14252;DHT22;7210;51.502;10.722;2023-02-28T12:50:30;5.20;99.90
14252;DHT22;7210;51.502;10.722;2023-02-28T12:53:02;5.10;99.90
14252;DHT22;7210;51.502;10.722;2023-02-28T12:55:40;5.10;99.90
14252;DHT22;7210;51.502;10.722;2023-02-28T12:58:16;5.30;99.90
14252;DHT22;7210;51.502;10.722;2023-02-28T13:01:05;5.30;99.90
14252;DHT22;7210;51.502;10.722;2023-02-28T13:03:59;5.30;99.90
14252;DHT22;7210;51.502;10.722;2023-02-28T13:06:53;5.30;99.90
14252;DHT22;7210;51.502;10.722;2023-02-28T13:09:35;5.20;99.90
14252;DHT22;7210;51.502;10.722;2023-02-28T13:12:12;5.20;99.90
14252;DHT22;7210;51.502;10.722;2023-02-28T13:14:42;5.10;99.90
14252;DHT22;7210;51.502;10.722;2023-02-28T13:17:11;5.10;99.90
14252;DHT22;7210;51.502;10.722;2023-02-28T13:19:56;5.10;99.90
14252;DHT22;7210;51.502;10.722;2023-02-28T13:22:40;5.20;99.90
14252;DHT22;7210;51.502;10.722;2023-02-28T13:32:20;5.40;99.90
14252;DHT22;7210;51.502;10.722;2023-02-28T13:35:43;5.30;99.90
14252;DHT22;7210;51.502;10.722;2023-02-28T13:38:32;5.30;99.90
14252;DHT22;7210;51.502;10.722;2023-02-28T13:44:15;5.20;99.90
14252;DHT22;7210;51.502;10.722;2023-02-28T13:47:27;5.10;99.90
14252;DHT22;7210;51.502;10.722;2023-02-28T13:50:20;5.10;99.90
14252;DHT22;7210;51.502;10.722;2023-02-28T13:53:08;5.00;99.90
14252;DHT22;7210;51.502;10.722;2023-02-28T13:56:08;4.80;99.90
14252;DHT22;7210;51.502;10.722;2023-02-28T13:58:54;4.80;99.90
14252;DHT22;7210;51.502;10.722;2023-02-28T14:01:41;4.70;99.90
14252;DHT22;7210;51.502;10.722;2023-02-28T14:04:58;4.70;99.90
14252;DHT22;7210;51.502;10.722;2023-02-28T14:07:30;4.60;99.90
14252;DHT22;7210;51.502;10.722;2023-02-28T14:10:06;4.70;99.90
14252;DHT22;7210;51.502;10.722;2023-02-28T14:12:59;4.80;99.90
14252;DHT22;7210;51.502;10.722;2023-02-28T14:15:55;4.90;99.90
14252;DHT22;7210;51.502;10.722;2023-02-28T14:18:27;4.80;99.90
14252;DHT22;7210;51.502;10.722;2023-02-28T14:21:03;4.90;99.90
14252;DHT22;7210;51.502;10.722;2023-02-28T14:27:05;4.80;99.90
14252;DHT22;7210;51.502;10.722;2023-02-28T14:33:01;4.70;99.90
14252;DHT22;7210;51.502;10.722;2023-02-28T14:35:54;4.60;99.90
14252;DHT22;7210;51.502;10.722;2023-02-28T14:38:31;4.60;99.90
14252;DHT22;7210;51.502;10.722;2023-02-28T14:41:05;4.60;99.90
14252;DHT22;7210;51.502;10.722;2023-02-28T14:43:49;4.50;99.90
14252;DHT22;7210;51.502;10.722;2023-02-28T14:46:19;4.60;99.90
14252;DHT22;7210;51.502;10.722;2023-02-28T14:48:47;4.50;99.90
14252;DHT22;7210;51.502;10.722;2023-02-28T14:51:22;4.50;99.90
14252;DHT22;7210;51.502;10.722;2023-02-28T14:53:57;4.50;99.90
14252;DHT22;7210;51.502;10.722;2023-02-28T14:56:28;4.40;99.90
14252;DHT22;7210;51.502;10.722;2023-02-28T14:59:00;4.40;99.90
14252;DHT22;7210;51.502;10.722;2023-02-28T15:01:27;4.30;99.90
14252;DHT22;7210;51.502;10.722;2023-02-28T15:04:00;4.30;99.90
14252;DHT22;7210;51.502;10.722;2023-02-28T15:06:31;4.30;99.90
14252;DHT22;7210;51.502;10.722;2023-02-28T15:09:15;4.30;99.90
14252;DHT22;7210;51.502;10.722;2023-02-28T15:11:47;4.20;99.90
14252;DHT22;7210;51.502;10.722;2023-02-28T15:14:21;4.10;99.90
14252;DHT22;7210;51.502;10.722;2023-02-28T15:16:52;4.00;99.90
14252;DHT22;7210;51.502;10.722;2023-02-28T15:19:24;4.00;99.90
14252;DHT22;7210;51.502;10.722;2023-02-28T15:21:59;3.90;99.90
14252;DHT22;7210;51.502;10.722;2023-02-28T15:24:36;3.80;99.90
14252;DHT22;7210;51.502;10.722;2023-02-28T15:27:09;3.90;99.90
14252;DHT22;7210;51.502;10.722;2023-02-28T15:29:46;3.80;99.90
14252;DHT22;7210;51.502;10.722;2023-02-28T15:32:26;3.80;99.90
14252;DHT22;7210;51.502;10.722;2023-02-28T15:34:57;3.70;99.90
14252;DHT22;7210;51.502;10.722;2023-02-28T15:37:33;3.60;99.90
14252;DHT22;7210;51.502;10.722;2023-02-28T15:40:13;3.50;99.90
14252;DHT22;7210;51.502;10.722;2023-02-28T15:42:43;3.40;99.90
14252;DHT22;7210;51.502;10.722;2023-02-28T15:45:32;3.40;99.90
14252;DHT22;7210;51.502;10.722;2023-02-28T15:48:04;3.30;99.90
14252;DHT22;7210;51.502;10.722;2023-02-28T15:50:32;3.20;99.90
14252;DHT22;7210;51.502;10.722;2023-02-28T15:53:01;3.10;99.90
14252;DHT22;7210;51.502;10.722;2023-02-28T15:55:30;3.10;99.90
14252;DHT22;7210;51.502;10.722;2023-02-28T15:58:00;3.10;99.90
14252;DHT22;7210;51.502;10.722;2023-02-28T16:00:30;3.00;99.90
14252;DHT22;7210;51.502;10.722;2023-02-28T16:02:58;2.90;99.90
14252;DHT22;7210;51.502;10.722;2023-02-28T16:05:27;2.80;99.90
14252;DHT22;7210;51.502;10.722;2023-02-28T16:07:58;2.80;99.90
14252;DHT22;7210;51.502;10.722;2023-02-28T16:10:28;2.70;99.90
14252;DHT22;7210;51.502;10.722;2023-02-28T16:12:57;2.60;99.90
14252;DHT22;7210;51.502;10.722;2023-02-28T16:15:26;2.60;99.90
14252;DHT22;7210;51.502;10.722;2023-02-28T16:17:55;2.50;99.90
14252;DHT22;7210;51.502;10.722;2023-02-28T16:20:25;2.40;99.90
14252;DHT22;7210;51.502;10.722;2023-02-28T16:22:55;2.40;99.90
14252;DHT22;7210;51.502;10.722;2023-02-28T16:25:25;2.30;99.90
14252;DHT22;7210;51.502;10.722;2023-02-28T16:28:01;2.20;99.90
14252;DHT22;7210;51.502;10.722;2023-02-28T16:30:29;2.20;99.90
14252;DHT22;7210;51.502;10.722;2023-02-28T16:32:58;2.10;99.90
14252;DHT22;7210;51.502;10.722;2023-02-28T16:35:26;2.10;99.90
14252;DHT22;7210;51.502;10.722;2023-02-28T16:37:53;2.00;99.90
14252;DHT22;7210;51.502;10.722;2023-02-28T16:40:23;1.90;99.90
14252;DHT22;7210;51.502;10.722;2023-02-28T16:42:58;1.90;99.90
14252;DHT22;7210;51.502;10.722;2023-02-28T16:45:28;1.80;99.90